createdAt,value
2019-04-11T00:00:36.356Z,85.00
2019-04-11T00:03:09.472Z,85.20
2019-04-11T00:05:43.727Z,85.60
2019-04-11T00:08:17.924Z,85.90
2019-04-11T00:10:51.406Z,86.10
2019-04-11T00:13:28.322Z,86.20
2019-04-11T00:16:01.199Z,86.30
2019-04-11T00:18:34.585Z,86.30
2019-04-11T00:21:08.733Z,86.50
2019-04-11T00:23:42.785Z,86.60
2019-04-11T00:26:17.238Z,86.70
2019-04-11T00:28:52.067Z,86.80
2019-04-11T00:31:25.715Z,87.10
2019-04-11T00:33:59.479Z,87.50
2019-04-11T00:36:34.632Z,87.30
2019-04-11T00:39:11.111Z,87.30
2019-04-11T00:41:44.124Z,87.50
2019-04-11T00:44:18.845Z,87.60
2019-04-11T00:46:53.414Z,87.60
2019-04-11T00:49:29.155Z,87.70
2019-04-11T00:52:04.471Z,87.60
2019-04-11T00:54:38.624Z,87.30
2019-04-11T00:57:16.936Z,87.30
2019-04-11T00:59:50.925Z,87.40
2019-04-11T01:02:25.255Z,87.20
2019-04-11T01:04:59.251Z,87.00
2019-04-11T01:07:33.207Z,87.00
2019-04-11T01:10:07.479Z,87.10
2019-04-11T01:12:43.035Z,87.20
2019-04-11T01:15:19.741Z,86.80
2019-04-11T01:17:53.875Z,87.10
2019-04-11T01:20:27.727Z,87.00
2019-04-11T01:23:00.963Z,87.30
2019-04-11T01:25:36.789Z,87.60
2019-04-11T01:28:10.536Z,87.80
2019-04-11T01:30:55.536Z,87.70
2019-04-11T01:33:29.709Z,87.70
2019-04-11T01:36:03.397Z,87.40
2019-04-11T01:38:42.583Z,87.40
2019-04-11T01:41:16.302Z,87.60
2019-04-11T01:43:56.967Z,87.70
2019-04-11T01:46:26.352Z,87.90
2019-04-11T01:49:05.998Z,88.00
2019-04-11T01:51:40.028Z,88.10
2019-04-11T01:54:13.314Z,88.30
2019-04-11T01:56:47.515Z,88.10
2019-04-11T01:59:21.538Z,88.40
2019-04-11T02:02:05.395Z,87.70
2019-04-11T02:04:50.339Z,87.50
2019-04-11T02:07:24.669Z,88.00
2019-04-11T02:09:57.503Z,88.10
2019-04-11T02:12:31.036Z,87.80
2019-04-11T02:15:04.035Z,87.50
2019-04-11T02:17:37.626Z,87.40
2019-04-11T02:20:12.535Z,87.70
2019-04-11T02:22:57.696Z,87.90
2019-04-11T02:25:52.582Z,87.90
2019-04-11T02:28:26.934Z,88.30
2019-04-11T02:31:00.252Z,88.70
2019-04-11T02:33:34.723Z,89.40
2019-04-11T02:36:09.520Z,89.30
2019-04-11T02:38:43.958Z,89.30
2019-04-11T02:41:17.095Z,89.20
2019-04-11T02:43:51.045Z,89.30
2019-04-11T02:46:35.615Z,88.80
2019-04-11T02:49:01.475Z,89.20
2019-04-11T02:51:36.891Z,89.30
2019-04-11T02:54:11.508Z,88.80
2019-04-11T02:56:45.571Z,88.70
2019-04-11T02:59:21.408Z,88.70
2019-04-11T03:02:00.274Z,88.80
2019-04-11T03:04:34.727Z,88.80
2019-04-11T03:07:08.088Z,88.70
2019-04-11T03:09:44.070Z,88.70
2019-04-11T03:12:19.271Z,88.90
2019-04-11T03:15:12.695Z,89.40
2019-04-11T03:17:36.165Z,89.70
2019-04-11T03:20:18.771Z,89.80
2019-04-11T03:22:40.534Z,89.90
2019-04-11T03:25:15.713Z,89.80
2019-04-11T03:27:51.603Z,90.30
2019-04-11T03:30:42.190Z,91.00
2019-04-11T03:33:58.092Z,91.40
2019-04-11T03:36:21.714Z,91.30
2019-04-11T03:38:36.682Z,91.00
2019-04-11T03:41:04.380Z,91.00
2019-04-11T03:43:34.073Z,90.60
2019-04-11T03:46:15.874Z,90.60
2019-04-11T03:48:46.776Z,90.50
2019-04-11T03:51:11.012Z,90.90
2019-04-11T03:53:45.165Z,90.80
2019-04-11T03:56:21.998Z,90.60
2019-04-11T03:58:57.793Z,90.40
2019-04-11T04:01:35.092Z,90.60
2019-04-11T04:04:09.194Z,91.00
2019-04-11T04:06:45.821Z,91.10
2019-04-11T04:09:20.986Z,91.30
2019-04-11T04:11:56.907Z,91.30
2019-04-11T04:14:59.203Z,91.20
2019-04-11T04:18:03.525Z,90.70
2019-04-11T04:20:49.020Z,90.60
2019-04-11T04:23:29.516Z,91.30
2019-04-11T04:26:06.199Z,91.70
2019-04-11T04:28:40.931Z,91.40
2019-04-11T04:31:16.275Z,91.40
2019-04-11T04:33:51.406Z,91.60
2019-04-11T04:36:26.770Z,91.90
2019-04-11T04:39:01.399Z,92.40
2019-04-11T04:41:45.095Z,92.60
2019-04-11T04:44:16.927Z,92.60
2019-04-11T04:47:00.155Z,93.00
2019-04-11T04:49:28.336Z,93.10
2019-04-11T04:52:04.016Z,93.00
2019-04-11T04:54:41.872Z,93.00
2019-04-11T04:57:15.471Z,92.30
2019-04-11T04:59:49.792Z,92.20
2019-04-11T05:02:24.131Z,92.10
2019-04-11T05:04:58.821Z,92.30
2019-04-11T05:07:37.630Z,92.20
2019-04-11T05:10:08.900Z,92.30
2019-04-11T05:12:43.821Z,92.40
2019-04-11T05:15:16.812Z,92.40
2019-04-11T05:17:51.244Z,92.40
2019-04-11T05:20:24.955Z,92.20
2019-04-11T05:23:00.027Z,91.90
2019-04-11T05:25:34.820Z,92.00
2019-04-11T05:28:09.816Z,92.00
2019-04-11T05:30:44.924Z,91.80
2019-04-11T05:33:21.185Z,91.60
2019-04-11T05:35:54.193Z,91.40
2019-04-11T05:38:27.311Z,91.30
2019-04-11T05:41:00.603Z,91.40
2019-04-11T05:43:37.357Z,91.40
2019-04-11T05:46:23.866Z,91.20
2019-04-11T05:49:06.147Z,91.30
2019-04-11T05:51:47.066Z,91.00
2019-04-11T05:54:18.396Z,90.60
2019-04-11T05:56:59.566Z,90.00
2019-04-11T05:59:32.817Z,89.50
2019-04-11T06:02:13.166Z,89.30
2019-04-11T06:04:53.505Z,89.30
2019-04-11T06:07:48.962Z,89.10
2019-04-11T06:10:26.084Z,88.60
2019-04-11T06:13:22.571Z,88.60
2019-04-11T06:16:00.679Z,88.50
2019-04-11T06:18:54.719Z,87.90
2019-04-11T06:21:33.969Z,87.70
2019-04-11T06:24:25.939Z,87.40
2019-04-11T06:27:18.285Z,87.50
2019-04-11T06:30:10.595Z,86.80
2019-04-11T06:33:03.214Z,86.80
2019-04-11T06:36:13.780Z,86.50
2019-04-11T06:38:51.155Z,86.50
2019-04-11T06:41:54.824Z,85.70
2019-04-11T06:44:43.818Z,85.60
2019-04-11T06:47:53.435Z,85.70
2019-04-11T06:50:33.348Z,85.70
2019-04-11T06:53:08.880Z,84.90
2019-04-11T06:56:01.745Z,84.40
2019-04-11T06:58:39.495Z,83.70
2019-04-11T07:01:20.358Z,83.10
2019-04-11T07:03:57.872Z,83.00
2019-04-11T07:06:32.874Z,83.00
2019-04-11T07:09:24.542Z,82.90
2019-04-11T07:12:03.460Z,82.80
2019-04-11T07:14:43.307Z,82.40
2019-04-11T07:17:36.837Z,82.10
2019-04-11T07:20:46.035Z,81.30
2019-04-11T07:23:38.430Z,81.10
2019-04-11T07:26:23.033Z,81.20
2019-04-11T07:29:25.784Z,81.30
2019-04-11T07:32:17.968Z,80.70
2019-04-11T07:35:25.435Z,80.30
2019-04-11T07:37:58.540Z,79.40
2019-04-11T07:41:01.293Z,79.00
2019-04-11T07:43:39.001Z,78.40
2019-04-11T07:46:42.992Z,78.70
2019-04-11T07:49:18.541Z,78.60
2019-04-11T07:51:55.654Z,77.90
2019-04-11T07:54:30.351Z,78.10
2019-04-11T07:57:14.841Z,77.70
2019-04-11T08:00:00.107Z,77.60
2019-04-11T08:02:53.178Z,77.30
2019-04-11T08:05:45.292Z,77.40
2019-04-11T08:08:37.287Z,77.40
2019-04-11T08:11:17.863Z,76.50
2019-04-11T08:14:08.321Z,76.80
2019-04-11T08:17:07.259Z,76.40
2019-04-11T08:19:59.617Z,76.60
2019-04-11T08:22:38.927Z,76.10
2019-04-11T08:25:20.800Z,75.30
2019-04-11T08:28:04.890Z,75.40
2019-04-11T08:30:55.192Z,75.50
2019-04-11T08:33:28.808Z,74.50
2019-04-11T08:36:31.679Z,74.20
2019-04-11T08:39:11.079Z,74.20
2019-04-11T08:42:03.199Z,73.90
2019-04-11T08:44:39.656Z,73.90
2019-04-11T08:47:16.170Z,74.00
2019-04-11T08:49:55.799Z,73.80
2019-04-11T08:52:42.386Z,73.10
2019-04-11T08:55:23.166Z,72.10
2019-04-11T08:58:08.589Z,72.00
2019-04-11T09:00:56.175Z,71.50
2019-04-11T09:04:02.046Z,71.10
2019-04-11T09:06:30.641Z,70.60
2019-04-11T09:09:23.128Z,70.50
2019-04-11T09:12:00.296Z,70.00
2019-04-11T09:14:52.672Z,70.50
2019-04-11T09:17:30.289Z,69.80
2019-04-11T09:20:29.662Z,69.80
2019-04-11T09:23:05.841Z,69.90
2019-04-11T09:25:59.267Z,69.30
2019-04-11T09:28:49.437Z,69.80
2019-04-11T09:31:41.728Z,68.30
2019-04-11T09:34:44.088Z,67.20
2019-04-11T09:37:27.480Z,67.50
2019-04-11T09:40:21.170Z,66.60
2019-04-11T09:43:13.574Z,66.50
2019-04-11T09:46:04.015Z,65.00
2019-04-11T09:48:48.265Z,65.00
2019-04-11T09:51:40.443Z,63.40
2019-04-11T09:54:36.872Z,62.80
2019-04-11T09:57:32.491Z,60.40
2019-04-11T10:00:26.862Z,59.40
2019-04-11T10:03:03.941Z,58.70
2019-04-11T10:06:05.287Z,57.60
2019-04-11T10:08:39.777Z,58.00
2019-04-11T10:11:30.888Z,57.70
2019-04-11T10:14:11.582Z,58.20
2019-04-11T10:17:02.683Z,58.90
2019-04-11T10:19:54.182Z,58.80
2019-04-11T10:22:50.095Z,58.90
2019-04-11T10:25:35.270Z,58.00
2019-04-11T10:28:29.526Z,57.70
2019-04-11T10:31:09.022Z,57.50
2019-04-11T10:34:09.191Z,57.70
2019-04-11T10:36:49.472Z,58.50
2019-04-11T10:39:43.920Z,59.30
2019-04-11T10:42:18.119Z,58.80
2019-04-11T10:45:26.822Z,56.90
2019-04-11T10:48:03.322Z,56.60
2019-04-11T10:50:54.223Z,56.20
2019-04-11T10:53:28.424Z,54.70
2019-04-11T10:56:26.705Z,54.90
2019-04-11T10:59:01.657Z,54.90
2019-04-11T11:01:52.798Z,53.70
2019-04-11T11:04:38.929Z,52.70
2019-04-11T11:07:18.358Z,52.50
2019-04-11T11:09:56.693Z,52.50
2019-04-11T11:12:49.744Z,53.60
2019-04-11T11:15:33.988Z,53.50
2019-04-11T11:19:01.980Z,52.60
2019-04-11T11:21:06.069Z,52.50
2019-04-11T11:23:58.813Z,52.20
2019-04-11T11:26:33.962Z,52.90
2019-04-11T11:29:26.653Z,52.70
2019-04-11T11:32:18.992Z,52.00
2019-04-11T11:34:56.936Z,52.80
2019-04-11T11:38:01.980Z,53.50
2019-04-11T11:40:58.307Z,54.20
2019-04-11T11:43:33.020Z,54.70
2019-04-11T11:46:26.694Z,53.60
2019-04-11T11:49:02.912Z,54.50
2019-04-11T11:52:12.992Z,55.20
2019-04-11T11:54:49.838Z,53.60
2019-04-11T11:57:30.853Z,53.80
2019-04-11T12:00:13.325Z,53.70
2019-04-11T12:03:13.989Z,54.20
2019-04-11T12:05:54.033Z,55.30
2019-04-11T12:08:54.047Z,56.60
2019-04-11T12:11:28.252Z,57.50
2019-04-11T12:14:24.286Z,58.00
2019-04-11T12:17:14.815Z,56.70
2019-04-11T12:20:01.414Z,54.70
2019-04-11T12:22:28.796Z,55.30
2019-04-11T12:25:09.375Z,56.00
2019-04-11T12:28:05.271Z,57.60
2019-04-11T12:30:42.522Z,57.80
2019-04-11T12:33:37.307Z,56.90
2019-04-11T12:36:16.749Z,56.80
2019-04-11T12:39:08.961Z,56.40
2019-04-11T12:42:04.854Z,55.70
2019-04-11T12:44:54.785Z,53.20
2019-04-11T12:47:33.499Z,53.30
2019-04-11T12:50:32.363Z,51.90
2019-04-11T12:53:09.694Z,51.20
2019-04-11T12:56:15.836Z,51.10
2019-04-11T12:58:59.778Z,51.40
2019-04-11T13:01:57.005Z,50.40
2019-04-11T13:04:38.927Z,50.30
2019-04-11T13:07:34.369Z,51.60
2019-04-11T13:10:29.818Z,51.20
2019-04-11T13:13:21.094Z,50.90
2019-04-11T13:16:13.389Z,51.20
2019-04-11T13:19:03.868Z,51.00
2019-04-11T13:21:47.016Z,51.00
2019-04-11T13:24:50.231Z,51.00
2019-04-11T13:27:28.440Z,50.80
2019-04-11T13:30:18.947Z,51.10
2019-04-11T13:32:55.992Z,50.40
2019-04-11T13:36:07.583Z,50.30
2019-04-11T13:38:44.624Z,51.20
2019-04-11T13:41:48.165Z,52.10
2019-04-11T13:44:30.567Z,52.20
2019-04-11T13:47:20.383Z,51.10
2019-04-11T13:49:58.650Z,49.50
2019-04-11T13:52:48.741Z,50.00
2019-04-11T13:55:28.102Z,49.10
2019-04-11T13:58:34.640Z,48.60
2019-04-11T14:01:15.495Z,48.90
2019-04-11T14:03:55.564Z,49.10
2019-04-11T14:06:51.573Z,49.40
2019-04-11T14:09:33.091Z,49.20
2019-04-11T14:12:10.098Z,49.50
2019-04-11T14:15:06.344Z,49.50
2019-04-11T14:18:11.723Z,48.60
2019-04-11T14:20:51.275Z,48.80
2019-04-11T14:23:42.731Z,48.40
2019-04-11T14:26:33.596Z,48.70
2019-04-11T14:29:13.782Z,48.80
2019-04-11T14:31:58.399Z,48.20
2019-04-11T14:34:49.910Z,48.30
2019-04-11T14:37:33.154Z,49.30
2019-04-11T14:40:11.549Z,51.20
2019-04-11T14:43:18.781Z,52.70
2019-04-11T14:46:25.105Z,52.90
2019-04-11T14:49:16.488Z,52.50
2019-04-11T14:52:09.211Z,51.30
2019-04-11T14:54:53.129Z,50.40
2019-04-11T14:57:48.515Z,49.10
2019-04-11T15:00:30.314Z,50.20
2019-04-11T15:03:17.422Z,50.90
2019-04-11T15:06:14.766Z,51.40
2019-04-11T15:09:05.061Z,51.60
2019-04-11T15:11:50.802Z,50.50
2019-04-11T15:14:51.592Z,49.70
2019-04-11T15:17:28.253Z,49.60
2019-04-11T15:20:33.859Z,49.60
2019-04-11T15:23:16.701Z,50.50
2019-04-11T15:26:10.296Z,51.40
2019-04-11T15:28:49.385Z,51.70
2019-04-11T15:31:39.273Z,51.70
2019-04-11T15:34:37.853Z,49.70
2019-04-11T15:37:41.149Z,50.10
2019-04-11T15:40:25.846Z,50.30
2019-04-11T15:43:42.001Z,50.50
2019-04-11T15:46:20.423Z,52.00
2019-04-11T15:49:20.849Z,51.20
2019-04-11T15:52:24.473Z,51.40
2019-04-11T15:55:22.074Z,51.60
2019-04-11T15:57:56.194Z,51.00
2019-04-11T16:01:09.997Z,51.10
2019-04-11T16:03:43.541Z,51.00
2019-04-11T16:06:35.242Z,50.50
2019-04-11T16:09:11.946Z,50.40
2019-04-11T16:12:10.533Z,50.80
2019-04-11T16:14:43.997Z,50.80
2019-04-11T16:23:56.962Z,50.80
2019-04-11T16:26:38.635Z,50.80
2019-04-11T16:29:26.000Z,51.60
2019-04-11T16:32:01.196Z,51.70
2019-04-11T16:34:55.716Z,52.10
2019-04-11T16:37:28.862Z,52.10
2019-04-11T16:40:35.583Z,52.60
2019-04-11T16:43:13.760Z,53.30
2019-04-11T16:46:06.339Z,54.20
2019-04-11T16:48:38.738Z,56.20
2019-04-11T16:51:12.419Z,57.20
2019-04-11T16:53:50.285Z,58.30
2019-04-11T16:56:24.222Z,59.20
2019-04-11T16:58:59.281Z,59.30
2019-04-11T17:01:36.418Z,59.50
2019-04-11T17:04:08.428Z,60.10
2019-04-11T17:07:01.595Z,60.80
2019-04-11T17:09:41.282Z,60.90
2019-04-11T17:12:14.885Z,61.30
2019-04-11T17:14:50.869Z,61.10
2019-04-11T17:17:26.206Z,60.90
2019-04-11T17:19:58.063Z,60.90
2019-04-11T17:22:30.768Z,61.10
2019-04-11T17:25:02.463Z,61.80
2019-04-11T17:27:37.690Z,62.60
2019-04-11T17:30:11.269Z,62.80
2019-04-11T17:32:43.411Z,63.10
2019-04-11T17:35:16.296Z,63.10
2019-04-11T17:37:49.445Z,63.50
2019-04-11T17:40:22.419Z,63.80
2019-04-11T17:42:57.428Z,63.90
2019-04-11T17:45:29.476Z,64.60
2019-04-11T17:48:01.866Z,64.50
2019-04-11T17:50:34.988Z,64.80
2019-04-11T17:53:08.225Z,65.20
2019-04-11T17:55:41.898Z,65.60
2019-04-11T17:58:14.634Z,65.70
2019-04-11T18:00:51.913Z,65.70
2019-04-11T18:03:27.722Z,65.90
2019-04-11T18:06:01.234Z,65.90
2019-04-11T18:08:33.755Z,66.40
2019-04-11T18:11:06.720Z,66.50
2019-04-11T18:13:40.511Z,66.80
2019-04-11T18:16:12.921Z,67.00
2019-04-11T18:18:44.838Z,66.80
2019-04-11T18:21:20.087Z,67.10
2019-04-11T18:23:53.848Z,67.30
2019-04-11T18:26:27.616Z,67.30
2019-04-11T18:28:59.995Z,67.70
2019-04-11T18:31:42.415Z,68.20
2019-04-11T18:34:24.261Z,67.90
2019-04-11T18:37:02.036Z,67.90
2019-04-11T18:39:37.360Z,67.90
2019-04-11T18:42:10.631Z,68.40
2019-04-11T18:44:50.397Z,68.80
2019-04-11T18:47:34.894Z,68.80
2019-04-11T18:50:17.403Z,69.00
2019-04-11T18:52:59.258Z,69.40
2019-04-11T18:55:35.820Z,69.60
2019-04-11T18:58:14.004Z,70.00
2019-04-11T19:00:56.332Z,70.00
2019-04-11T19:03:36.333Z,70.30
2019-04-11T19:06:13.954Z,70.30
2019-04-11T19:08:50.399Z,69.90
2019-04-11T19:11:23.727Z,69.60
2019-04-11T19:13:57.694Z,69.60
2019-04-11T19:16:32.495Z,69.80
2019-04-11T19:19:06.078Z,70.00
2019-04-11T19:21:41.418Z,70.00
2019-04-11T19:24:17.653Z,70.00
2019-04-11T19:26:56.286Z,70.10
2019-04-11T19:29:31.089Z,70.30
2019-04-11T19:32:05.653Z,70.50
2019-04-11T19:34:39.816Z,70.30
2019-04-11T19:37:13.690Z,70.60
2019-04-11T19:39:48.157Z,70.90
2019-04-11T19:42:23.875Z,70.80
2019-04-11T19:44:58.122Z,71.10
2019-04-11T19:47:33.335Z,71.10
2019-04-11T19:50:08.601Z,71.00
2019-04-11T19:52:45.860Z,71.20
2019-04-11T19:55:38.574Z,71.00
2019-04-11T19:58:13.671Z,71.30
2019-04-11T20:00:53.200Z,71.50
2019-04-11T20:03:24.920Z,71.30
2019-04-11T20:05:59.415Z,71.50
2019-04-11T20:08:33.794Z,71.80
2019-04-11T20:11:09.302Z,71.80
2019-04-11T20:13:51.017Z,71.80
2019-04-11T20:16:41.022Z,71.60
2019-04-11T20:19:09.475Z,71.90
2019-04-11T20:21:48.834Z,72.20
2019-04-11T20:24:28.735Z,72.30
2019-04-11T20:27:07.344Z,72.80
2019-04-11T20:29:51.004Z,73.30
2019-04-11T20:32:26.875Z,73.20
2019-04-11T20:35:02.298Z,73.10
2019-04-11T20:37:44.684Z,73.10
2019-04-11T20:40:23.022Z,73.00
2019-04-11T20:43:00.316Z,73.30
2019-04-11T20:45:42.174Z,73.30
2019-04-11T20:48:18.138Z,73.10
2019-04-11T20:50:54.621Z,73.30
2019-04-11T20:53:30.550Z,72.90
2019-04-11T20:56:04.172Z,72.70
2019-04-11T20:58:39.730Z,72.90
2019-04-11T21:01:14.055Z,73.00
2019-04-11T21:03:48.881Z,73.30
2019-04-11T21:06:22.771Z,73.50
2019-04-11T21:09:02.829Z,73.80
2019-04-11T21:11:38.421Z,74.10
2019-04-11T21:14:12.526Z,74.20
2019-04-11T21:16:52.562Z,74.40
2019-04-11T21:19:31.482Z,74.30
2019-04-11T21:22:23.969Z,74.00
2019-04-11T21:25:00.121Z,74.00
2019-04-11T21:27:35.245Z,74.00
2019-04-11T21:30:11.540Z,74.30
2019-04-11T21:32:50.121Z,74.20
2019-04-11T21:35:26.121Z,74.60
2019-04-11T21:38:02.795Z,75.20
2019-04-11T21:40:37.760Z,75.50
2019-04-11T21:43:11.803Z,76.10
2019-04-11T21:45:46.257Z,76.60
2019-04-11T21:48:19.605Z,76.20
2019-04-11T21:50:53.836Z,76.30
2019-04-11T21:53:36.848Z,76.70
2019-04-11T21:56:18.650Z,77.00
2019-04-11T21:58:52.522Z,77.10
2019-04-11T22:01:34.016Z,76.80
2019-04-11T22:04:14.099Z,77.10
2019-04-11T22:06:52.197Z,77.00
2019-04-11T22:09:26.501Z,76.80
2019-04-11T22:12:07.667Z,76.70
2019-04-11T22:14:46.770Z,76.80
2019-04-11T22:17:22.070Z,77.30
2019-04-11T22:20:00.092Z,77.50
2019-04-11T22:22:33.693Z,77.60
2019-04-11T22:25:10.652Z,77.50
2019-04-11T22:27:55.455Z,77.50
2019-04-11T22:30:30.563Z,77.50
2019-04-11T22:33:19.033Z,77.50
2019-04-11T22:35:56.974Z,77.50
2019-04-11T22:38:38.796Z,77.60
2019-04-11T22:41:14.196Z,77.90
2019-04-11T22:43:56.868Z,78.20
2019-04-11T22:46:37.400Z,78.10
2019-04-11T22:49:15.705Z,77.50
2019-04-11T22:51:50.304Z,77.20
2019-04-11T22:54:30.703Z,77.10
2019-04-11T22:57:04.727Z,76.50
2019-04-11T22:59:38.229Z,76.60
2019-04-11T23:02:24.597Z,76.80
2019-04-11T23:04:59.227Z,76.70
2019-04-11T23:07:32.268Z,76.80
2019-04-11T23:10:06.636Z,76.80
2019-04-11T23:12:42.909Z,77.40
2019-04-11T23:15:16.763Z,77.40
2019-04-11T23:17:50.939Z,77.50
2019-04-11T23:20:26.583Z,77.50
2019-04-11T23:23:02.810Z,77.50
2019-04-11T23:25:37.661Z,77.70
2019-04-11T23:28:11.073Z,77.90
2019-04-11T23:30:49.485Z,77.50
2019-04-11T23:33:21.426Z,77.40
2019-04-11T23:35:54.969Z,77.40
2019-04-11T23:38:29.199Z,77.60
2019-04-11T23:41:02.801Z,77.50
2019-04-11T23:43:36.941Z,77.30
2019-04-11T23:46:10.489Z,77.20
2019-04-11T23:48:46.445Z,77.20
2019-04-11T23:51:20.349Z,77.10
2019-04-11T23:53:53.822Z,77.10
2019-04-11T23:56:30.602Z,77.00
2019-04-11T23:59:05.614Z,77.00
